createdAt,value
2022-10-15T00:02:46.481Z,1.70
2022-10-15T00:05:38.090Z,1.40
2022-10-15T00:08:26.529Z,1.10
2022-10-15T00:11:16.944Z,1.50
2022-10-15T00:14:05.500Z,1.35
2022-10-15T00:16:55.338Z,1.02
2022-10-15T00:19:43.724Z,1.35
2022-10-15T00:22:32.179Z,1.20
2022-10-15T00:25:20.999Z,1.30
2022-10-15T00:28:10.761Z,1.02
2022-10-15T00:34:01.507Z,1.35
2022-10-15T00:36:52.040Z,1.20
2022-10-15T00:39:40.652Z,1.20
2022-10-15T00:42:29.241Z,1.10
2022-10-15T00:45:18.210Z,1.40
2022-10-15T00:48:06.997Z,1.10
2022-10-15T00:50:57.165Z,1.10
2022-10-15T00:53:45.991Z,1.20
2022-10-15T00:56:35.325Z,1.27
2022-10-15T00:59:26.091Z,1.20
2022-10-15T01:02:15.655Z,1.00
2022-10-15T01:05:04.504Z,1.50
2022-10-15T01:07:55.503Z,1.20
2022-10-15T01:10:49.428Z,0.85
2022-10-15T01:13:40.519Z,0.95
2022-10-15T01:16:34.911Z,1.20
2022-10-15T01:19:33.907Z,1.00
2022-10-15T01:22:33.091Z,0.73
2022-10-15T01:25:30.989Z,0.90
2022-10-15T01:28:25.680Z,0.88
2022-10-15T01:31:22.929Z,0.90
2022-10-15T01:37:10.262Z,1.00
2022-10-15T01:40:03.523Z,1.15
2022-10-15T01:43:03.858Z,1.15
2022-10-15T01:45:56.664Z,1.10
2022-10-15T01:48:46.427Z,1.40
2022-10-15T01:51:36.707Z,1.30
2022-10-15T01:54:26.945Z,1.00
2022-10-15T01:57:15.650Z,1.00
2022-10-15T02:00:12.812Z,0.75
2022-10-15T02:03:01.743Z,0.82
2022-10-15T02:05:55.063Z,1.20
2022-10-15T02:08:47.887Z,0.90
2022-10-15T02:11:45.854Z,1.10
2022-10-15T02:14:38.391Z,1.08
2022-10-15T02:17:33.098Z,1.40
2022-10-15T02:20:22.997Z,0.93
2022-10-15T02:23:16.690Z,0.88
2022-10-15T02:26:07.743Z,1.65
2022-10-15T02:28:58.587Z,1.13
2022-10-15T02:31:49.091Z,1.00
2022-10-15T02:34:37.981Z,0.90
2022-10-15T02:37:29.384Z,1.10
2022-10-15T02:40:19.384Z,1.40
2022-10-15T02:43:10.009Z,1.20
2022-10-15T02:46:02.056Z,1.00
2022-10-15T02:48:50.530Z,1.00
2022-10-15T02:51:41.689Z,1.20
2022-10-15T02:54:30.290Z,1.10
2022-10-15T02:57:20.190Z,0.90
2022-10-15T03:00:10.210Z,1.10
2022-10-15T03:02:58.659Z,0.98
2022-10-15T03:05:47.371Z,1.00
2022-10-15T03:08:36.039Z,1.08
2022-10-15T03:11:24.636Z,0.90
2022-10-15T03:14:15.757Z,0.90
2022-10-15T03:17:04.196Z,0.98
2022-10-15T03:19:55.132Z,1.05
2022-10-15T03:22:43.683Z,1.20
2022-10-15T03:25:34.318Z,1.17
2022-10-15T03:28:23.255Z,1.05
2022-10-15T03:31:14.216Z,1.13
2022-10-15T03:34:02.748Z,0.98
2022-10-15T03:36:51.261Z,1.00
2022-10-15T03:39:39.745Z,1.02
2022-10-15T03:42:28.202Z,1.42
2022-10-15T03:45:16.721Z,1.15
2022-10-15T03:48:07.753Z,1.25
2022-10-15T03:50:56.295Z,1.02
2022-10-15T03:53:44.843Z,1.38
2022-10-15T03:56:38.781Z,1.20
2022-10-15T03:59:27.595Z,1.10
2022-10-15T04:02:16.111Z,1.13
2022-10-15T04:05:06.415Z,0.90
2022-10-15T04:07:55.575Z,0.98
2022-10-15T04:10:44.201Z,1.10
2022-10-15T04:13:32.595Z,1.08
2022-10-15T04:16:21.105Z,1.23
2022-10-15T04:19:11.199Z,0.90
2022-10-15T04:22:01.524Z,1.15
2022-10-15T04:24:50.141Z,1.00
2022-10-15T04:27:38.602Z,0.90
2022-10-15T04:30:27.092Z,1.00
2022-10-15T04:33:15.551Z,1.23
2022-10-15T04:36:06.023Z,1.58
2022-10-15T04:38:56.040Z,1.83
2022-10-15T04:41:44.755Z,1.17
2022-10-15T04:44:33.209Z,1.33
2022-10-15T04:47:22.029Z,1.00
2022-10-15T04:50:11.230Z,1.25
2022-10-15T04:53:01.130Z,1.27
2022-10-15T04:55:50.991Z,1.10
2022-10-15T04:58:39.660Z,1.38
2022-10-15T05:01:28.120Z,1.15
2022-10-15T05:04:18.174Z,1.00
2022-10-15T05:07:06.693Z,1.42
2022-10-15T05:09:55.191Z,1.10
2022-10-15T05:12:45.092Z,1.13
2022-10-15T05:15:33.765Z,1.17
2022-10-15T05:18:22.316Z,1.88
2022-10-15T05:21:12.489Z,0.88
2022-10-15T05:24:01.328Z,1.23
2022-10-15T05:26:50.633Z,1.45
2022-10-15T05:29:41.019Z,1.05
2022-10-15T05:32:29.486Z,1.23
2022-10-15T05:35:20.954Z,1.15
2022-10-15T05:38:09.413Z,1.05
2022-10-15T05:40:57.868Z,1.42
2022-10-15T05:43:48.422Z,1.20
2022-10-15T05:46:38.352Z,1.55
2022-10-15T05:49:26.797Z,1.20
2022-10-15T05:52:15.774Z,0.98
2022-10-15T05:55:04.511Z,1.60
2022-10-15T05:57:52.996Z,1.25
2022-10-15T06:00:41.440Z,0.80
2022-10-15T06:03:31.902Z,1.45
2022-10-15T06:06:21.656Z,0.98
2022-10-15T06:09:10.433Z,1.15
2022-10-15T06:11:58.947Z,1.20
2022-10-15T06:14:50.321Z,1.38
2022-10-15T06:17:38.830Z,1.00
2022-10-15T06:20:29.930Z,1.00
2022-10-15T06:23:18.550Z,1.08
2022-10-15T06:26:08.249Z,1.38
2022-10-15T06:28:56.767Z,0.85
2022-10-15T06:31:45.325Z,0.95
2022-10-15T06:34:33.796Z,1.30
2022-10-15T06:37:23.760Z,1.10
2022-10-15T06:40:13.129Z,1.10
2022-10-15T06:43:05.967Z,0.93
2022-10-15T06:45:54.408Z,0.82
2022-10-15T06:48:42.869Z,1.30
2022-10-15T06:51:31.235Z,1.25
2022-10-15T06:54:21.016Z,1.05
2022-10-15T06:57:09.482Z,1.10
2022-10-15T06:59:57.968Z,1.15
2022-10-15T07:02:46.417Z,1.30
2022-10-15T07:05:35.702Z,0.90
2022-10-15T07:08:24.182Z,1.30
2022-10-15T07:11:14.043Z,1.45
2022-10-15T07:14:02.632Z,0.70
2022-10-15T07:16:51.227Z,1.00
2022-10-15T07:19:39.645Z,1.05
2022-10-15T07:22:29.396Z,1.27
2022-10-15T07:25:17.846Z,1.25
2022-10-15T07:28:08.104Z,1.27
2022-10-15T07:30:56.504Z,1.00
2022-10-15T07:33:45.103Z,1.73
2022-10-15T07:36:33.579Z,2.13
2022-10-15T07:39:22.048Z,1.90
2022-10-15T07:45:02.617Z,2.47
2022-10-15T07:47:51.111Z,1.80
2022-10-15T07:50:42.343Z,1.77
2022-10-15T07:53:31.335Z,1.92
2022-10-15T07:56:20.272Z,2.05
2022-10-15T07:59:09.644Z,1.73
2022-10-15T08:01:59.495Z,1.70
2022-10-15T08:04:50.356Z,2.63
2022-10-15T08:07:38.870Z,2.30
2022-10-15T08:10:27.657Z,1.90
2022-10-15T08:13:16.117Z,1.60
2022-10-15T08:16:04.925Z,1.70
2022-10-15T08:18:54.683Z,1.75
2022-10-15T08:21:45.222Z,1.33
2022-10-15T08:24:35.811Z,1.85
2022-10-15T08:27:24.562Z,1.70
2022-10-15T08:30:13.091Z,1.73
2022-10-15T08:33:01.601Z,1.88
2022-10-15T08:35:51.418Z,1.67
2022-10-15T08:38:39.945Z,1.63
2022-10-15T08:41:32.503Z,1.60
2022-10-15T08:44:23.986Z,1.85
2022-10-15T08:47:19.633Z,1.55
2022-10-15T08:50:17.490Z,1.83
2022-10-15T08:53:07.386Z,1.30
2022-10-15T08:55:57.651Z,1.40
2022-10-15T08:58:50.413Z,1.38
2022-10-15T09:01:42.153Z,1.50
2022-10-15T09:04:33.556Z,1.05
2022-10-15T09:07:27.951Z,1.27
2022-10-15T09:10:20.316Z,1.52
2022-10-15T09:13:16.320Z,1.50
2022-10-15T09:16:11.103Z,1.60
2022-10-15T09:19:00.285Z,0.98
2022-10-15T09:21:51.809Z,1.10
2022-10-15T09:24:40.718Z,1.30
2022-10-15T09:27:32.875Z,1.52
2022-10-15T09:30:36.435Z,1.20
2022-10-15T09:33:35.334Z,1.20
2022-10-15T09:36:35.601Z,1.13
2022-10-15T09:39:38.201Z,1.30
2022-10-15T09:42:31.977Z,1.10
2022-10-15T09:45:20.958Z,0.95
2022-10-15T09:48:17.399Z,1.33
2022-10-15T09:51:09.730Z,1.27
2022-10-15T09:54:03.283Z,0.98
2022-10-15T09:56:54.714Z,1.00
2022-10-15T09:59:56.259Z,1.08
2022-10-15T10:02:44.781Z,1.10
2022-10-15T10:05:35.350Z,0.85
2022-10-15T10:08:26.072Z,1.60
2022-10-15T10:11:14.559Z,1.20
2022-10-15T10:14:05.986Z,0.98
2022-10-15T10:17:17.356Z,0.90
2022-10-15T10:20:18.361Z,1.05
2022-10-15T10:23:24.069Z,29.38
2022-10-15T10:26:13.101Z,9.73
2022-10-15T10:29:09.861Z,5.07
2022-10-15T10:32:13.937Z,4.70
2022-10-15T10:35:04.368Z,5.05
2022-10-15T10:37:53.258Z,4.50
2022-10-15T10:40:41.800Z,4.18
2022-10-15T10:43:33.358Z,4.20
2022-10-15T10:46:25.078Z,3.75
2022-10-15T10:49:15.715Z,2.58
2022-10-15T10:52:04.302Z,3.33
2022-10-15T10:55:00.639Z,3.35
2022-10-15T10:57:51.921Z,2.40
2022-10-15T11:00:42.378Z,2.75
2022-10-15T11:03:34.798Z,2.72
2022-10-15T11:06:43.005Z,3.10
2022-10-15T11:09:44.971Z,2.67
2022-10-15T11:12:42.183Z,2.95
2022-10-15T11:15:39.415Z,2.00
2022-10-15T11:18:39.555Z,2.03
2022-10-15T11:21:40.455Z,1.88
2022-10-15T11:24:42.644Z,1.70
2022-10-15T11:27:53.065Z,1.80
2022-10-15T11:30:51.156Z,1.83
2022-10-15T11:33:50.738Z,1.58
2022-10-15T11:36:49.415Z,2.22
2022-10-15T11:39:48.752Z,1.67
2022-10-15T11:42:40.071Z,1.70
2022-10-15T11:45:56.900Z,1.20
2022-10-15T11:48:54.444Z,1.67
2022-10-15T11:51:57.645Z,1.55
2022-10-15T11:54:47.370Z,1.00
2022-10-15T11:57:37.653Z,1.08
2022-10-15T12:00:33.360Z,1.30
2022-10-15T12:03:30.306Z,1.65
2022-10-15T12:06:20.826Z,1.50
2022-10-15T12:09:14.743Z,1.20
2022-10-15T12:12:10.413Z,0.98
2022-10-15T12:15:09.022Z,1.30
2022-10-15T12:18:03.882Z,1.25
2022-10-15T12:20:55.435Z,1.30
2022-10-15T12:23:44.114Z,1.20
2022-10-15T12:26:35.877Z,1.00
2022-10-15T12:29:27.384Z,1.20
2022-10-15T12:32:24.495Z,1.33
2022-10-15T12:35:23.886Z,1.38
2022-10-15T12:38:29.521Z,1.10
2022-10-15T12:41:18.334Z,1.55
2022-10-15T12:44:16.244Z,1.50
2022-10-15T12:47:04.929Z,1.23
2022-10-15T12:50:03.715Z,1.20
2022-10-15T12:52:59.042Z,1.35
2022-10-15T12:56:15.417Z,1.00
2022-10-15T12:59:05.179Z,0.73
2022-10-15T13:01:54.079Z,0.57
2022-10-15T13:04:43.181Z,0.55
2022-10-15T13:07:32.382Z,0.40
2022-10-15T13:10:22.635Z,0.40
2022-10-15T13:13:18.239Z,0.50
2022-10-15T13:16:09.758Z,0.40
2022-10-15T13:19:00.014Z,0.38
2022-10-15T13:21:51.482Z,0.30
2022-10-15T13:24:43.117Z,0.43
2022-10-15T13:27:33.241Z,0.57
2022-10-15T13:30:23.877Z,0.40
2022-10-15T13:33:12.422Z,0.30
2022-10-15T13:36:07.613Z,0.32
2022-10-15T13:38:58.750Z,0.30
2022-10-15T13:41:47.828Z,0.10
2022-10-15T13:44:36.775Z,0.35
2022-10-15T13:47:29.657Z,0.20
2022-10-15T13:50:23.882Z,0.28
2022-10-15T13:53:16.725Z,0.20
2022-10-15T13:56:16.541Z,0.20
2022-10-15T13:59:05.214Z,0.00
2022-10-15T14:02:00.767Z,0.03
2022-10-15T14:04:54.170Z,0.10
2022-10-15T14:07:42.652Z,0.10
2022-10-15T14:10:34.011Z,0.10
2022-10-15T14:13:22.549Z,0.10
2022-10-15T14:16:16.722Z,0.10
2022-10-15T14:19:11.813Z,1.10
2022-10-15T14:22:02.745Z,0.95
2022-10-15T14:24:52.940Z,0.47
2022-10-15T14:27:46.536Z,0.28
2022-10-15T14:30:36.876Z,0.25
2022-10-15T14:33:43.788Z,0.20
2022-10-15T14:36:33.451Z,0.22
2022-10-15T14:39:29.402Z,0.13
2022-10-15T14:42:29.436Z,0.10
2022-10-15T14:45:23.261Z,0.17
2022-10-15T14:48:13.197Z,0.10
2022-10-15T14:51:06.855Z,0.10
2022-10-15T14:53:55.467Z,0.10
2022-10-15T14:56:45.305Z,0.10
2022-10-15T14:59:38.330Z,0.20
2022-10-15T15:02:28.987Z,0.10
2022-10-15T15:05:23.777Z,0.00
2022-10-15T15:08:12.275Z,0.28
2022-10-15T15:11:02.907Z,0.10
2022-10-15T15:13:54.874Z,0.60
2022-10-15T15:16:43.522Z,0.47
2022-10-15T15:19:32.122Z,0.60
2022-10-15T15:22:25.730Z,0.73
2022-10-15T15:25:16.732Z,0.77
2022-10-15T15:28:05.714Z,0.90
2022-10-15T15:30:59.423Z,1.70
2022-10-15T15:33:47.852Z,0.98
2022-10-15T15:36:36.456Z,0.90
2022-10-15T15:39:24.956Z,1.08
2022-10-15T15:42:17.654Z,1.25
2022-10-15T15:45:06.825Z,1.80
2022-10-15T15:47:58.734Z,2.08
2022-10-15T15:50:48.337Z,2.22
2022-10-15T15:53:37.046Z,1.30
2022-10-15T15:56:26.390Z,1.50
2022-10-15T15:59:17.010Z,1.65
2022-10-15T16:02:06.106Z,1.70
2022-10-15T16:04:55.966Z,1.38
2022-10-15T16:07:44.617Z,1.50
2022-10-15T16:10:33.675Z,1.30
2022-10-15T16:13:22.104Z,1.70
2022-10-15T16:16:11.296Z,0.70
2022-10-15T16:18:59.870Z,0.80
2022-10-15T16:21:49.675Z,1.30
2022-10-15T16:24:38.198Z,1.00
2022-10-15T16:27:26.977Z,0.82
2022-10-15T16:30:16.932Z,0.80
2022-10-15T16:33:09.764Z,0.50
2022-10-15T16:35:58.505Z,0.40
2022-10-15T16:38:48.808Z,0.70
2022-10-15T16:41:37.222Z,0.50
2022-10-15T16:44:25.739Z,0.52
2022-10-15T16:47:14.210Z,0.30
2022-10-15T16:50:02.910Z,0.63
2022-10-15T16:52:51.389Z,0.50
2022-10-15T16:55:42.437Z,0.40
2022-10-15T16:58:31.531Z,0.80
2022-10-15T17:01:21.539Z,0.50
2022-10-15T17:04:10.019Z,0.70
2022-10-15T17:06:58.485Z,0.50
2022-10-15T17:12:41.691Z,0.80
2022-10-15T17:15:30.166Z,0.77
2022-10-15T17:18:19.110Z,0.70
2022-10-15T17:21:11.263Z,0.40
2022-10-15T17:24:01.505Z,0.90
2022-10-15T17:26:51.033Z,0.55
2022-10-15T17:29:40.935Z,0.73
2022-10-15T17:32:29.392Z,0.50
2022-10-15T17:35:17.888Z,0.80
2022-10-15T17:38:06.336Z,1.20
2022-10-15T17:40:54.802Z,0.70
2022-10-15T17:43:43.278Z,1.13
2022-10-15T17:46:33.331Z,1.10
2022-10-15T17:49:21.879Z,1.48
2022-10-15T17:52:10.550Z,1.30
2022-10-15T17:54:58.980Z,1.30
2022-10-15T17:57:47.432Z,1.58
2022-10-15T18:00:35.917Z,1.52
2022-10-15T18:03:28.346Z,1.92
2022-10-15T18:06:18.529Z,1.15
2022-10-15T18:09:06.938Z,1.20
2022-10-15T18:11:55.419Z,1.88
2022-10-15T18:14:43.850Z,1.50
2022-10-15T18:17:32.368Z,1.67
2022-10-15T18:20:24.103Z,2.53
2022-10-15T18:23:13.125Z,2.50
2022-10-15T18:26:02.553Z,2.20
2022-10-15T18:28:53.529Z,2.63
2022-10-15T18:31:42.075Z,2.95
2022-10-15T18:34:33.192Z,2.92
2022-10-15T18:37:24.472Z,3.55
2022-10-15T18:40:13.931Z,3.22
2022-10-15T18:43:02.376Z,3.65
2022-10-15T18:45:50.816Z,3.50
2022-10-15T18:48:39.901Z,3.47
2022-10-15T18:51:28.431Z,3.35
2022-10-15T18:54:18.360Z,4.07
2022-10-15T18:57:10.458Z,3.25
2022-10-15T18:59:58.974Z,3.45
2022-10-15T19:02:47.409Z,3.53
2022-10-15T19:05:37.526Z,3.78
2022-10-15T19:08:28.618Z,3.28
2022-10-15T19:11:18.908Z,3.95
2022-10-15T19:14:11.774Z,3.55
2022-10-15T19:17:05.342Z,3.38
2022-10-15T19:19:56.081Z,3.40
2022-10-15T19:22:46.296Z,3.50
2022-10-15T19:25:34.714Z,4.25
2022-10-15T19:28:24.615Z,4.13
2022-10-15T19:31:17.153Z,3.83
2022-10-15T19:34:06.110Z,3.40
2022-10-15T19:36:54.584Z,3.63
2022-10-15T19:39:48.063Z,3.88
2022-10-15T19:42:36.721Z,4.18
2022-10-15T19:45:26.480Z,3.72
2022-10-15T19:48:16.601Z,3.22
2022-10-15T19:51:06.143Z,3.53
2022-10-15T19:53:56.352Z,4.30
2022-10-15T19:56:44.828Z,3.50
2022-10-15T19:59:33.273Z,4.25
2022-10-15T20:02:23.045Z,3.35
2022-10-15T20:05:11.632Z,3.90
2022-10-15T20:08:00.123Z,4.10
2022-10-15T20:10:55.105Z,3.63
2022-10-15T20:13:43.760Z,3.90
2022-10-15T20:16:33.587Z,4.22
2022-10-15T20:19:23.631Z,4.05
2022-10-15T20:22:14.377Z,3.25
2022-10-15T20:25:04.118Z,3.67
2022-10-15T20:27:52.555Z,3.75
2022-10-15T20:30:43.423Z,4.43
2022-10-15T20:33:31.867Z,3.97
2022-10-15T20:36:24.032Z,4.88
2022-10-15T20:39:12.788Z,4.20
2022-10-15T20:42:01.197Z,3.55
2022-10-15T20:44:49.612Z,3.97
2022-10-15T20:47:40.778Z,4.32
2022-10-15T20:50:32.144Z,4.38
2022-10-15T20:53:22.981Z,4.00
2022-10-15T20:56:11.402Z,4.40
2022-10-15T20:58:59.887Z,4.88
2022-10-15T21:01:48.356Z,4.13
2022-10-15T21:04:36.879Z,4.57
2022-10-15T21:07:25.427Z,4.43
2022-10-15T21:10:15.305Z,4.80
2022-10-15T21:13:03.783Z,5.05
2022-10-15T21:15:52.130Z,5.10
2022-10-15T21:18:40.685Z,5.00
2022-10-15T21:21:29.526Z,5.90
2022-10-15T21:24:18.102Z,5.82
2022-10-15T21:27:10.206Z,5.40
2022-10-15T21:29:58.710Z,5.53
2022-10-15T21:32:47.266Z,4.97
2022-10-15T21:35:35.725Z,6.15
2022-10-15T21:38:24.247Z,6.07
2022-10-15T21:41:12.759Z,5.65
2022-10-15T21:44:03.381Z,5.10
2022-10-15T21:46:51.923Z,5.32
2022-10-15T21:49:41.565Z,5.28
2022-10-15T21:52:30.478Z,5.18
2022-10-15T21:55:18.882Z,5.60
2022-10-15T21:58:07.365Z,5.07
2022-10-15T22:00:57.230Z,4.97
2022-10-15T22:03:46.703Z,4.47
2022-10-15T22:06:35.595Z,4.78
2022-10-15T22:09:24.013Z,4.82
2022-10-15T22:12:13.895Z,5.30
2022-10-15T22:15:04.205Z,5.03
2022-10-15T22:17:54.041Z,4.40
2022-10-15T22:20:42.539Z,4.43
2022-10-15T22:23:30.991Z,5.13
2022-10-15T22:26:21.236Z,4.57
2022-10-15T22:29:11.972Z,4.68
2022-10-15T22:32:00.411Z,4.30
2022-10-15T22:34:50.220Z,4.03
2022-10-15T22:37:38.625Z,4.28
2022-10-15T22:40:27.138Z,4.65
2022-10-15T22:43:15.616Z,4.38
2022-10-15T22:46:05.020Z,4.28
2022-10-15T22:48:53.694Z,4.70
2022-10-15T22:51:43.788Z,4.70
2022-10-15T22:54:32.369Z,4.32
2022-10-15T22:57:21.740Z,5.25
2022-10-15T23:00:11.724Z,4.15
2022-10-15T23:03:00.231Z,4.25
2022-10-15T23:05:53.331Z,4.07
2022-10-15T23:08:43.742Z,4.30
2022-10-15T23:11:37.509Z,4.45
2022-10-15T23:14:26.080Z,3.92
2022-10-15T23:17:14.668Z,4.63
2022-10-15T23:20:03.239Z,4.20
2022-10-15T23:22:51.758Z,4.28
2022-10-15T23:25:41.548Z,4.07
2022-10-15T23:28:30.167Z,4.45
2022-10-15T23:31:19.207Z,4.32
2022-10-15T23:34:07.884Z,4.68
2022-10-15T23:36:56.471Z,4.63
2022-10-15T23:39:44.993Z,3.78
2022-10-15T23:42:34.832Z,4.03
2022-10-15T23:45:23.361Z,4.75
2022-10-15T23:48:11.805Z,4.63
2022-10-15T23:51:03.327Z,4.53
2022-10-15T23:53:53.142Z,4.35
2022-10-15T23:56:41.672Z,4.55
2022-10-15T23:59:31.426Z,5.10
